sensor_id;sensor_type;location;lat;lon;timestamp;temperature;humidity
4058;DHT22;2044;48.692;9.020;2022-07-25T00:02:16;18.50;99.90
4058;DHT22;2044;48.692;9.020;2022-07-25T00:04:43;18.50;99.90
4058;DHT22;2044;48.692;9.020;2022-07-25T00:07:10;18.40;99.90
4058;DHT22;2044;48.692;9.020;2022-07-25T00:09:37;18.30;99.90
4058;DHT22;2044;48.692;9.020;2022-07-25T00:12:04;18.40;99.90
4058;DHT22;2044;48.692;9.020;2022-07-25T00:14:30;18.40;99.90
4058;DHT22;2044;48.692;9.020;2022-07-25T00:16:57;18.30;99.90
4058;DHT22;2044;48.692;9.020;2022-07-25T00:19:25;18.30;99.90
4058;DHT22;2044;48.692;9.020;2022-07-25T00:21:52;18.30;99.90
4058;DHT22;2044;48.692;9.020;2022-07-25T00:24:19;18.40;99.90
4058;DHT22;2044;48.692;9.020;2022-07-25T00:26:45;18.50;99.90
4058;DHT22;2044;48.692;9.020;2022-07-25T00:29:12;18.50;99.90
4058;DHT22;2044;48.692;9.020;2022-07-25T00:31:39;18.50;99.90
4058;DHT22;2044;48.692;9.020;2022-07-25T00:34:05;18.40;99.90
4058;DHT22;2044;48.692;9.020;2022-07-25T00:36:33;18.30;99.90
4058;DHT22;2044;48.692;9.020;2022-07-25T00:39:00;18.20;99.90
4058;DHT22;2044;48.692;9.020;2022-07-25T00:41:27;18.20;99.90
4058;DHT22;2044;48.692;9.020;2022-07-25T00:43:53;18.10;99.90
4058;DHT22;2044;48.692;9.020;2022-07-25T00:46:20;18.00;99.90
4058;DHT22;2044;48.692;9.020;2022-07-25T00:48:47;18.10;99.90
4058;DHT22;2044;48.692;9.020;2022-07-25T00:51:15;18.20;99.90
4058;DHT22;2044;48.692;9.020;2022-07-25T00:53:43;18.30;99.90
4058;DHT22;2044;48.692;9.020;2022-07-25T00:56:10;18.50;99.90
4058;DHT22;2044;48.692;9.020;2022-07-25T00:58:37;18.50;99.90
4058;DHT22;2044;48.692;9.020;2022-07-25T01:01:04;18.40;99.90
4058;DHT22;2044;48.692;9.020;2022-07-25T01:03:31;18.50;99.90
4058;DHT22;2044;48.692;9.020;2022-07-25T01:05:57;18.40;99.90
4058;DHT22;2044;48.692;9.020;2022-07-25T01:08:24;18.40;99.90
4058;DHT22;2044;48.692;9.020;2022-07-25T01:10:52;18.30;99.90
4058;DHT22;2044;48.692;9.020;2022-07-25T01:13:19;18.20;99.90
4058;DHT22;2044;48.692;9.020;2022-07-25T01:15:46;18.10;99.90
4058;DHT22;2044;48.692;9.020;2022-07-25T01:18:12;18.10;99.90
4058;DHT22;2044;48.692;9.020;2022-07-25T01:20:40;18.10;99.90
4058;DHT22;2044;48.692;9.020;2022-07-25T01:23:07;18.00;99.90
4058;DHT22;2044;48.692;9.020;2022-07-25T01:25:34;17.90;99.90
4058;DHT22;2044;48.692;9.020;2022-07-25T01:28:00;17.90;99.90
4058;DHT22;2044;48.692;9.020;2022-07-25T01:30:27;17.90;99.90
4058;DHT22;2044;48.692;9.020;2022-07-25T01:32:54;18.00;99.90
4058;DHT22;2044;48.692;9.020;2022-07-25T01:35:21;18.10;99.90
4058;DHT22;2044;48.692;9.020;2022-07-25T01:37:49;18.20;99.90
4058;DHT22;2044;48.692;9.020;2022-07-25T01:40:15;18.40;99.90
4058;DHT22;2044;48.692;9.020;2022-07-25T01:42:43;18.60;99.70
4058;DHT22;2044;48.692;9.020;2022-07-25T01:45:10;18.70;19.70
4058;DHT22;2044;48.692;9.020;2022-07-25T01:47:37;18.60;61.60
4058;DHT22;2044;48.692;9.020;2022-07-25T01:50:05;18.30;99.90
4058;DHT22;2044;48.692;9.020;2022-07-25T01:52:32;18.10;99.90
4058;DHT22;2044;48.692;9.020;2022-07-25T01:55:00;17.90;99.90
4058;DHT22;2044;48.692;9.020;2022-07-25T01:57:27;17.70;99.90
4058;DHT22;2044;48.692;9.020;2022-07-25T01:59:53;17.60;99.90
4058;DHT22;2044;48.692;9.020;2022-07-25T02:02:20;17.40;99.90
4058;DHT22;2044;48.692;9.020;2022-07-25T02:04:47;17.20;99.90
4058;DHT22;2044;48.692;9.020;2022-07-25T02:07:13;17.10;99.90
4058;DHT22;2044;48.692;9.020;2022-07-25T02:09:40;17.20;99.90
4058;DHT22;2044;48.692;9.020;2022-07-25T02:12:08;17.30;99.90
4058;DHT22;2044;48.692;9.020;2022-07-25T02:14:35;17.30;99.90
4058;DHT22;2044;48.692;9.020;2022-07-25T02:17:02;17.50;99.90
4058;DHT22;2044;48.692;9.020;2022-07-25T02:19:29;17.90;99.90
4058;DHT22;2044;48.692;9.020;2022-07-25T02:21:55;18.10;99.90
4058;DHT22;2044;48.692;9.020;2022-07-25T02:24:22;18.20;99.90
4058;DHT22;2044;48.692;9.020;2022-07-25T02:26:49;18.00;99.90
4058;DHT22;2044;48.692;9.020;2022-07-25T02:29:17;17.90;99.90
4058;DHT22;2044;48.692;9.020;2022-07-25T02:31:43;17.90;99.90
4058;DHT22;2044;48.692;9.020;2022-07-25T02:34:10;17.70;99.90
4058;DHT22;2044;48.692;9.020;2022-07-25T02:36:37;17.60;99.90
4058;DHT22;2044;48.692;9.020;2022-07-25T02:39:04;17.50;99.90
4058;DHT22;2044;48.692;9.020;2022-07-25T02:41:31;17.40;99.90
4058;DHT22;2044;48.692;9.020;2022-07-25T02:43:58;17.30;99.90
4058;DHT22;2044;48.692;9.020;2022-07-25T02:46:26;17.30;99.90
4058;DHT22;2044;48.692;9.020;2022-07-25T02:48:52;17.30;99.90
4058;DHT22;2044;48.692;9.020;2022-07-25T02:51:19;17.20;99.90
4058;DHT22;2044;48.692;9.020;2022-07-25T02:53:46;17.20;99.90
4058;DHT22;2044;48.692;9.020;2022-07-25T02:56:12;17.20;99.90
4058;DHT22;2044;48.692;9.020;2022-07-25T02:58:39;17.10;99.90
4058;DHT22;2044;48.692;9.020;2022-07-25T03:01:06;17.10;99.90
4058;DHT22;2044;48.692;9.020;2022-07-25T03:03:34;17.30;99.90
4058;DHT22;2044;48.692;9.020;2022-07-25T03:06:01;17.50;99.90
4058;DHT22;2044;48.692;9.020;2022-07-25T03:08:28;17.60;99.90
4058;DHT22;2044;48.692;9.020;2022-07-25T03:10:54;17.50;99.90
4058;DHT22;2044;48.692;9.020;2022-07-25T03:13:21;17.40;99.90
4058;DHT22;2044;48.692;9.020;2022-07-25T03:15:48;17.30;99.90
4058;DHT22;2044;48.692;9.020;2022-07-25T03:18:14;17.20;99.90
4058;DHT22;2044;48.692;9.020;2022-07-25T03:20:42;17.30;99.90
4058;DHT22;2044;48.692;9.020;2022-07-25T03:23:09;17.40;99.90
4058;DHT22;2044;48.692;9.020;2022-07-25T03:25:36;17.40;99.90
4058;DHT22;2044;48.692;9.020;2022-07-25T03:28:02;17.40;99.90
4058;DHT22;2044;48.692;9.020;2022-07-25T03:30:29;17.50;99.90
4058;DHT22;2044;48.692;9.020;2022-07-25T03:32:56;17.40;99.90
4058;DHT22;2044;48.692;9.020;2022-07-25T03:35:23;17.30;99.90
4058;DHT22;2044;48.692;9.020;2022-07-25T03:37:51;17.30;99.90
4058;DHT22;2044;48.692;9.020;2022-07-25T03:40:18;17.20;99.90
4058;DHT22;2044;48.692;9.020;2022-07-25T03:42:45;17.10;99.90
4058;DHT22;2044;48.692;9.020;2022-07-25T03:45:12;17.10;99.90
4058;DHT22;2044;48.692;9.020;2022-07-25T03:47:38;17.00;99.90
4058;DHT22;2044;48.692;9.020;2022-07-25T03:50:05;16.90;99.90
4058;DHT22;2044;48.692;9.020;2022-07-25T03:52:32;16.80;99.90
4058;DHT22;2044;48.692;9.020;2022-07-25T03:55:00;16.70;99.90
4058;DHT22;2044;48.692;9.020;2022-07-25T03:57:27;16.70;99.90
4058;DHT22;2044;48.692;9.020;2022-07-25T03:59:53;16.80;99.90
4058;DHT22;2044;48.692;9.020;2022-07-25T04:02:20;17.10;99.90
4058;DHT22;2044;48.692;9.020;2022-07-25T04:04:47;17.30;99.90
4058;DHT22;2044;48.692;9.020;2022-07-25T04:07:14;17.60;99.90
4058;DHT22;2044;48.692;9.020;2022-07-25T04:09:40;17.80;99.90
4058;DHT22;2044;48.692;9.020;2022-07-25T04:12:08;17.80;99.90
4058;DHT22;2044;48.692;9.020;2022-07-25T04:14:35;17.90;99.90
4058;DHT22;2044;48.692;9.020;2022-07-25T04:17:02;17.80;99.90
4058;DHT22;2044;48.692;9.020;2022-07-25T04:19:29;17.70;99.90
4058;DHT22;2044;48.692;9.020;2022-07-25T04:21:55;17.60;99.90
4058;DHT22;2044;48.692;9.020;2022-07-25T04:24:22;17.50;99.90
4058;DHT22;2044;48.692;9.020;2022-07-25T04:26:49;17.70;99.90
4058;DHT22;2044;48.692;9.020;2022-07-25T04:29:17;17.90;99.90
4058;DHT22;2044;48.692;9.020;2022-07-25T04:31:43;18.10;99.90
4058;DHT22;2044;48.692;9.020;2022-07-25T04:34:10;18.50;99.90
4058;DHT22;2044;48.692;9.020;2022-07-25T04:36:37;19.40;1.00
4058;DHT22;2044;48.692;9.020;2022-07-25T04:39:03;20.30;99.90
4058;DHT22;2044;48.692;9.020;2022-07-25T04:41:30;21.00;1.00
4058;DHT22;2044;48.692;9.020;2022-07-25T04:43:57;22.00;53.00
4058;DHT22;2044;48.692;9.020;2022-07-25T04:46:25;22.80;1.00
4058;DHT22;2044;48.692;9.020;2022-07-25T04:48:53;23.60;99.90
4058;DHT22;2044;48.692;9.020;2022-07-25T04:51:20;24.30;99.90
4058;DHT22;2044;48.692;9.020;2022-07-25T04:53:46;24.40;99.90
4058;DHT22;2044;48.692;9.020;2022-07-25T04:56:13;24.40;99.90
4058;DHT22;2044;48.692;9.020;2022-07-25T04:58:40;24.00;99.90
4058;DHT22;2044;48.692;9.020;2022-07-25T05:01:06;24.40;99.90
4058;DHT22;2044;48.692;9.020;2022-07-25T05:03:35;24.50;99.20
4058;DHT22;2044;48.692;9.020;2022-07-25T05:06:02;24.10;35.60
4058;DHT22;2044;48.692;9.020;2022-07-25T05:08:28;23.60;99.90
4058;DHT22;2044;48.692;9.020;2022-07-25T05:10:55;24.00;99.90
4058;DHT22;2044;48.692;9.020;2022-07-25T05:13:22;24.60;1.00
4058;DHT22;2044;48.692;9.020;2022-07-25T05:15:49;24.70;1.00
4058;DHT22;2044;48.692;9.020;2022-07-25T05:18:15;25.30;1.00
4058;DHT22;2044;48.692;9.020;2022-07-25T05:20:43;25.40;1.00
4058;DHT22;2044;48.692;9.020;2022-07-25T05:23:10;25.40;1.00
4058;DHT22;2044;48.692;9.020;2022-07-25T05:25:37;25.60;1.00
4058;DHT22;2044;48.692;9.020;2022-07-25T05:28:04;25.80;1.00
4058;DHT22;2044;48.692;9.020;2022-07-25T05:30:30;26.10;1.00
4058;DHT22;2044;48.692;9.020;2022-07-25T05:32:57;26.50;1.00
4058;DHT22;2044;48.692;9.020;2022-07-25T05:35:24;26.60;99.90
4058;DHT22;2044;48.692;9.020;2022-07-25T05:37:52;26.40;99.90
4058;DHT22;2044;48.692;9.020;2022-07-25T05:40:19;26.40;99.90
4058;DHT22;2044;48.692;9.020;2022-07-25T05:42:46;26.40;99.90
4058;DHT22;2044;48.692;9.020;2022-07-25T05:45:12;26.20;99.90
4058;DHT22;2044;48.692;9.020;2022-07-25T05:47:39;27.00;99.90
4058;DHT22;2044;48.692;9.020;2022-07-25T05:50:06;26.80;99.90
4058;DHT22;2044;48.692;9.020;2022-07-25T05:52:34;26.90;99.90
4058;DHT22;2044;48.692;9.020;2022-07-25T05:55:02;26.70;99.90
4058;DHT22;2044;48.692;9.020;2022-07-25T05:57:29;26.60;99.90
4058;DHT22;2044;48.692;9.020;2022-07-25T05:59:56;26.80;99.90
4058;DHT22;2044;48.692;9.020;2022-07-25T06:02:23;27.00;99.90
4058;DHT22;2044;48.692;9.020;2022-07-25T06:04:49;26.50;99.90
4058;DHT22;2044;48.692;9.020;2022-07-25T06:07:16;27.10;99.90
4058;DHT22;2044;48.692;9.020;2022-07-25T06:09:43;27.70;99.90
4058;DHT22;2044;48.692;9.020;2022-07-25T06:12:11;27.70;99.90
4058;DHT22;2044;48.692;9.020;2022-07-25T06:14:38;27.50;99.90
4058;DHT22;2044;48.692;9.020;2022-07-25T06:17:05;26.50;99.90
4058;DHT22;2044;48.692;9.020;2022-07-25T06:19:31;26.70;99.90
4058;DHT22;2044;48.692;9.020;2022-07-25T06:21:58;26.80;99.90
4058;DHT22;2044;48.692;9.020;2022-07-25T06:24:25;27.20;99.90
4058;DHT22;2044;48.692;9.020;2022-07-25T06:26:51;27.60;99.90
4058;DHT22;2044;48.692;9.020;2022-07-25T06:29:19;27.60;99.90
4058;DHT22;2044;48.692;9.020;2022-07-25T06:31:48;28.30;99.90
4058;DHT22;2044;48.692;9.020;2022-07-25T06:34:14;28.20;99.90
4058;DHT22;2044;48.692;9.020;2022-07-25T06:36:41;28.60;99.90
4058;DHT22;2044;48.692;9.020;2022-07-25T06:39:08;29.30;99.90
4058;DHT22;2044;48.692;9.020;2022-07-25T06:41:35;29.30;99.90
4058;DHT22;2044;48.692;9.020;2022-07-25T06:44:02;30.40;99.90
4058;DHT22;2044;48.692;9.020;2022-07-25T06:46:30;31.60;99.90
4058;DHT22;2044;48.692;9.020;2022-07-25T06:48:57;31.00;99.90
4058;DHT22;2044;48.692;9.020;2022-07-25T06:51:24;30.60;99.90
4058;DHT22;2044;48.692;9.020;2022-07-25T06:53:50;31.60;99.90
4058;DHT22;2044;48.692;9.020;2022-07-25T06:56:17;31.90;99.90
4058;DHT22;2044;48.692;9.020;2022-07-25T06:58:44;31.20;99.90
4058;DHT22;2044;48.692;9.020;2022-07-25T07:01:11;32.00;99.90
4058;DHT22;2044;48.692;9.020;2022-07-25T07:03:39;30.40;99.90
4058;DHT22;2044;48.692;9.020;2022-07-25T07:06:07;31.20;99.90
4058;DHT22;2044;48.692;9.020;2022-07-25T07:08:35;32.20;99.90
4058;DHT22;2044;48.692;9.020;2022-07-25T07:11:02;31.80;99.90
4058;DHT22;2044;48.692;9.020;2022-07-25T07:13:29;32.00;99.90
4058;DHT22;2044;48.692;9.020;2022-07-25T07:15:56;31.60;99.90
4058;DHT22;2044;48.692;9.020;2022-07-25T07:18:23;31.00;99.90
4058;DHT22;2044;48.692;9.020;2022-07-25T07:20:55;31.10;99.90
4058;DHT22;2044;48.692;9.020;2022-07-25T07:23:22;31.20;99.90
4058;DHT22;2044;48.692;9.020;2022-07-25T07:25:49;30.60;99.90
4058;DHT22;2044;48.692;9.020;2022-07-25T07:28:16;30.10;99.90
4058;DHT22;2044;48.692;9.020;2022-07-25T07:30:43;31.60;99.90
4058;DHT22;2044;48.692;9.020;2022-07-25T07:33:09;31.80;99.90
4058;DHT22;2044;48.692;9.020;2022-07-25T07:35:36;32.40;99.90
4058;DHT22;2044;48.692;9.020;2022-07-25T07:38:05;33.90;99.90
4058;DHT22;2044;48.692;9.020;2022-07-25T07:40:32;32.80;99.90
4058;DHT22;2044;48.692;9.020;2022-07-25T07:42:58;32.00;99.90
4058;DHT22;2044;48.692;9.020;2022-07-25T07:45:28;32.20;99.90
4058;DHT22;2044;48.692;9.020;2022-07-25T07:47:55;31.90;99.90
4058;DHT22;2044;48.692;9.020;2022-07-25T07:50:24;32.50;99.90
4058;DHT22;2044;48.692;9.020;2022-07-25T07:52:52;32.50;99.90
4058;DHT22;2044;48.692;9.020;2022-07-25T07:55:22;33.90;99.90
4058;DHT22;2044;48.692;9.020;2022-07-25T07:58:06;34.20;99.90
4058;DHT22;2044;48.692;9.020;2022-07-25T08:00:34;33.00;99.90
4058;DHT22;2044;48.692;9.020;2022-07-25T08:03:04;33.50;99.90
4058;DHT22;2044;48.692;9.020;2022-07-25T08:05:33;33.00;99.90
4058;DHT22;2044;48.692;9.020;2022-07-25T08:08:00;33.40;99.90
4058;DHT22;2044;48.692;9.020;2022-07-25T08:10:30;33.70;99.90
4058;DHT22;2044;48.692;9.020;2022-07-25T08:12:58;34.90;99.90
4058;DHT22;2044;48.692;9.020;2022-07-25T08:15:25;34.40;99.90
4058;DHT22;2044;48.692;9.020;2022-07-25T08:17:52;35.40;99.90
4058;DHT22;2044;48.692;9.020;2022-07-25T08:20:20;36.00;99.90
4058;DHT22;2044;48.692;9.020;2022-07-25T08:22:48;35.60;99.90
4058;DHT22;2044;48.692;9.020;2022-07-25T08:25:17;35.50;99.90
4058;DHT22;2044;48.692;9.020;2022-07-25T08:27:46;34.40;99.90
4058;DHT22;2044;48.692;9.020;2022-07-25T08:30:13;35.00;99.90
4058;DHT22;2044;48.692;9.020;2022-07-25T08:32:49;35.20;99.90
4058;DHT22;2044;48.692;9.020;2022-07-25T08:35:17;34.50;99.90
4058;DHT22;2044;48.692;9.020;2022-07-25T08:37:44;35.00;99.90
4058;DHT22;2044;48.692;9.020;2022-07-25T08:40:11;34.80;99.90
4058;DHT22;2044;48.692;9.020;2022-07-25T08:42:38;35.20;99.90
4058;DHT22;2044;48.692;9.020;2022-07-25T08:45:09;34.80;99.90
4058;DHT22;2044;48.692;9.020;2022-07-25T08:47:38;33.90;99.90
4058;DHT22;2044;48.692;9.020;2022-07-25T08:50:07;35.00;99.90
4058;DHT22;2044;48.692;9.020;2022-07-25T08:52:35;34.50;99.90
4058;DHT22;2044;48.692;9.020;2022-07-25T08:55:03;34.20;99.90
4058;DHT22;2044;48.692;9.020;2022-07-25T08:57:30;34.50;99.90
4058;DHT22;2044;48.692;9.020;2022-07-25T08:59:57;34.80;99.90
4058;DHT22;2044;48.692;9.020;2022-07-25T09:02:27;34.40;99.90
4058;DHT22;2044;48.692;9.020;2022-07-25T09:04:54;35.30;99.90
4058;DHT22;2044;48.692;9.020;2022-07-25T09:07:41;34.80;99.90
4058;DHT22;2044;48.692;9.020;2022-07-25T09:10:12;34.40;99.90
4058;DHT22;2044;48.692;9.020;2022-07-25T09:12:51;34.10;99.90
4058;DHT22;2044;48.692;9.020;2022-07-25T09:15:26;35.00;99.90
4058;DHT22;2044;48.692;9.020;2022-07-25T09:17:55;35.80;99.90
4058;DHT22;2044;48.692;9.020;2022-07-25T09:20:23;36.40;99.90
4058;DHT22;2044;48.692;9.020;2022-07-25T09:22:50;37.80;99.90
4058;DHT22;2044;48.692;9.020;2022-07-25T09:25:21;36.50;99.90
4058;DHT22;2044;48.692;9.020;2022-07-25T09:27:48;37.10;99.90
4058;DHT22;2044;48.692;9.020;2022-07-25T09:30:16;35.90;99.90
4058;DHT22;2044;48.692;9.020;2022-07-25T09:32:42;34.40;99.90
4058;DHT22;2044;48.692;9.020;2022-07-25T09:35:11;34.60;99.90
4058;DHT22;2044;48.692;9.020;2022-07-25T09:37:38;34.60;99.90
4058;DHT22;2044;48.692;9.020;2022-07-25T09:40:12;34.70;99.90
4058;DHT22;2044;48.692;9.020;2022-07-25T09:42:39;33.90;99.90
4058;DHT22;2044;48.692;9.020;2022-07-25T09:45:09;35.30;99.90
4058;DHT22;2044;48.692;9.020;2022-07-25T09:47:48;36.70;99.90
4058;DHT22;2044;48.692;9.020;2022-07-25T09:50:17;36.40;99.90
4058;DHT22;2044;48.692;9.020;2022-07-25T09:52:44;36.40;99.90
4058;DHT22;2044;48.692;9.020;2022-07-25T09:55:11;37.40;99.90
4058;DHT22;2044;48.692;9.020;2022-07-25T09:57:40;36.40;99.90
4058;DHT22;2044;48.692;9.020;2022-07-25T10:00:08;36.20;99.90
4058;DHT22;2044;48.692;9.020;2022-07-25T10:02:40;37.70;99.90
4058;DHT22;2044;48.692;9.020;2022-07-25T10:05:13;39.10;97.30
4058;DHT22;2044;48.692;9.020;2022-07-25T10:07:45;39.80;93.80
4058;DHT22;2044;48.692;9.020;2022-07-25T10:10:24;40.20;89.50
4058;DHT22;2044;48.692;9.020;2022-07-25T10:13:02;40.20;83.10
4058;DHT22;2044;48.692;9.020;2022-07-25T10:15:46;40.90;86.10
4058;DHT22;2044;48.692;9.020;2022-07-25T10:18:15;41.10;79.40
4058;DHT22;2044;48.692;9.020;2022-07-25T10:20:43;40.80;72.90
4058;DHT22;2044;48.692;9.020;2022-07-25T10:23:23;40.30;71.10
4058;DHT22;2044;48.692;9.020;2022-07-25T10:26:06;40.30;67.30
4058;DHT22;2044;48.692;9.020;2022-07-25T10:28:36;40.20;62.50
4058;DHT22;2044;48.692;9.020;2022-07-25T10:31:13;37.20;55.20
4058;DHT22;2044;48.692;9.020;2022-07-25T10:33:41;37.00;55.00
4058;DHT22;2044;48.692;9.020;2022-07-25T10:36:09;37.90;60.30
4058;DHT22;2044;48.692;9.020;2022-07-25T10:38:38;38.20;59.70
4058;DHT22;2044;48.692;9.020;2022-07-25T10:41:06;38.00;57.80
4058;DHT22;2044;48.692;9.020;2022-07-25T10:43:36;38.50;58.80
4058;DHT22;2044;48.692;9.020;2022-07-25T10:46:10;36.80;53.10
4058;DHT22;2044;48.692;9.020;2022-07-25T10:48:38;36.40;53.60
4058;DHT22;2044;48.692;9.020;2022-07-25T10:51:06;37.10;55.10
4058;DHT22;2044;48.692;9.020;2022-07-25T10:53:35;37.80;57.10
4058;DHT22;2044;48.692;9.020;2022-07-25T10:56:06;38.50;56.70
4058;DHT22;2044;48.692;9.020;2022-07-25T10:58:44;38.40;55.30
4058;DHT22;2044;48.692;9.020;2022-07-25T11:01:11;37.70;52.10
4058;DHT22;2044;48.692;9.020;2022-07-25T11:03:40;36.90;50.40
4058;DHT22;2044;48.692;9.020;2022-07-25T11:06:10;37.60;54.00
4058;DHT22;2044;48.692;9.020;2022-07-25T11:08:36;37.40;50.20
4058;DHT22;2044;48.692;9.020;2022-07-25T11:11:06;37.90;50.00
4058;DHT22;2044;48.692;9.020;2022-07-25T11:13:37;38.20;49.40
4058;DHT22;2044;48.692;9.020;2022-07-25T11:16:04;38.10;50.20
4058;DHT22;2044;48.692;9.020;2022-07-25T11:18:33;38.40;49.00
4058;DHT22;2044;48.692;9.020;2022-07-25T11:21:01;38.70;49.20
4058;DHT22;2044;48.692;9.020;2022-07-25T11:23:28;37.10;45.40
4058;DHT22;2044;48.692;9.020;2022-07-25T11:26:11;38.00;47.60
4058;DHT22;2044;48.692;9.020;2022-07-25T11:28:42;38.20;47.20
4058;DHT22;2044;48.692;9.020;2022-07-25T11:31:10;38.30;47.20
4058;DHT22;2044;48.692;9.020;2022-07-25T11:33:38;37.90;46.60
4058;DHT22;2044;48.692;9.020;2022-07-25T11:36:06;37.00;44.50
4058;DHT22;2044;48.692;9.020;2022-07-25T11:38:34;37.40;46.70
4058;DHT22;2044;48.692;9.020;2022-07-25T11:41:01;38.30;48.30
4058;DHT22;2044;48.692;9.020;2022-07-25T11:43:29;39.00;48.90
4058;DHT22;2044;48.692;9.020;2022-07-25T11:45:58;37.70;42.30
4058;DHT22;2044;48.692;9.020;2022-07-25T11:48:33;37.10;42.10
4058;DHT22;2044;48.692;9.020;2022-07-25T11:51:12;37.10;44.20
4058;DHT22;2044;48.692;9.020;2022-07-25T11:53:41;37.10;42.20
4058;DHT22;2044;48.692;9.020;2022-07-25T11:56:16;37.30;43.40
4058;DHT22;2044;48.692;9.020;2022-07-25T11:58:55;38.80;46.50
4058;DHT22;2044;48.692;9.020;2022-07-25T12:01:22;39.50;46.40
4058;DHT22;2044;48.692;9.020;2022-07-25T12:03:49;38.30;40.40
4058;DHT22;2044;48.692;9.020;2022-07-25T12:06:16;37.00;38.90
4058;DHT22;2044;48.692;9.020;2022-07-25T12:08:43;36.80;40.90
4058;DHT22;2044;48.692;9.020;2022-07-25T12:11:17;37.50;42.50
4058;DHT22;2044;48.692;9.020;2022-07-25T12:13:46;38.60;45.10
4058;DHT22;2044;48.692;9.020;2022-07-25T12:16:13;38.90;43.30
4058;DHT22;2044;48.692;9.020;2022-07-25T12:18:40;39.60;44.40
4058;DHT22;2044;48.692;9.020;2022-07-25T12:21:07;40.00;43.90
4058;DHT22;2044;48.692;9.020;2022-07-25T12:23:33;38.80;38.80
4058;DHT22;2044;48.692;9.020;2022-07-25T12:26:00;39.20;40.70
4058;DHT22;2044;48.692;9.020;2022-07-25T12:28:27;39.50;39.10
4058;DHT22;2044;48.692;9.020;2022-07-25T12:30:55;39.10;37.10
4058;DHT22;2044;48.692;9.020;2022-07-25T12:33:22;39.50;39.40
4058;DHT22;2044;48.692;9.020;2022-07-25T12:35:49;39.70;37.10
4058;DHT22;2044;48.692;9.020;2022-07-25T12:38:16;37.80;32.20
4058;DHT22;2044;48.692;9.020;2022-07-25T12:40:43;37.30;32.30
4058;DHT22;2044;48.692;9.020;2022-07-25T12:43:10;37.00;32.50
4058;DHT22;2044;48.692;9.020;2022-07-25T12:45:36;37.10;34.70
4058;DHT22;2044;48.692;9.020;2022-07-25T12:48:05;37.30;35.20
4058;DHT22;2044;48.692;9.020;2022-07-25T12:50:32;37.20;36.00
4058;DHT22;2044;48.692;9.020;2022-07-25T12:52:59;36.90;35.70
4058;DHT22;2044;48.692;9.020;2022-07-25T12:55:26;36.60;35.70
4058;DHT22;2044;48.692;9.020;2022-07-25T12:57:53;36.60;37.00
4058;DHT22;2044;48.692;9.020;2022-07-25T13:00:21;37.00;38.40
4058;DHT22;2044;48.692;9.020;2022-07-25T13:02:49;37.70;40.50
4058;DHT22;2044;48.692;9.020;2022-07-25T13:05:18;38.60;41.80
4058;DHT22;2044;48.692;9.020;2022-07-25T13:07:45;39.40;41.70
4058;DHT22;2044;48.692;9.020;2022-07-25T13:10:13;40.00;42.80
4058;DHT22;2044;48.692;9.020;2022-07-25T13:12:40;40.50;42.80
4058;DHT22;2044;48.692;9.020;2022-07-25T13:15:07;40.20;37.40
4058;DHT22;2044;48.692;9.020;2022-07-25T13:17:34;39.30;36.20
4058;DHT22;2044;48.692;9.020;2022-07-25T13:20:02;38.80;36.90
4058;DHT22;2044;48.692;9.020;2022-07-25T13:22:31;38.40;35.80
4058;DHT22;2044;48.692;9.020;2022-07-25T13:24:58;38.40;38.10
4058;DHT22;2044;48.692;9.020;2022-07-25T13:27:24;38.60;37.30
4058;DHT22;2044;48.692;9.020;2022-07-25T13:29:51;38.20;36.30
4058;DHT22;2044;48.692;9.020;2022-07-25T13:32:19;38.00;36.40
4058;DHT22;2044;48.692;9.020;2022-07-25T13:34:46;38.00;35.70
4058;DHT22;2044;48.692;9.020;2022-07-25T13:37:13;38.30;37.80
4058;DHT22;2044;48.692;9.020;2022-07-25T13:39:41;38.60;39.60
4058;DHT22;2044;48.692;9.020;2022-07-25T13:42:07;37.30;33.50
4058;DHT22;2044;48.692;9.020;2022-07-25T13:44:34;35.80;31.30
4058;DHT22;2044;48.692;9.020;2022-07-25T13:47:01;35.80;33.60
4058;DHT22;2044;48.692;9.020;2022-07-25T13:49:28;36.20;36.10
4058;DHT22;2044;48.692;9.020;2022-07-25T13:51:56;36.40;35.20
4058;DHT22;2044;48.692;9.020;2022-07-25T13:54:23;36.10;35.60
4058;DHT22;2044;48.692;9.020;2022-07-25T13:56:51;35.90;34.80
4058;DHT22;2044;48.692;9.020;2022-07-25T13:59:17;35.50;35.00
4058;DHT22;2044;48.692;9.020;2022-07-25T14:01:44;35.40;36.00
4058;DHT22;2044;48.692;9.020;2022-07-25T14:04:11;35.30;35.90
4058;DHT22;2044;48.692;9.020;2022-07-25T14:06:38;35.00;36.90
4058;DHT22;2044;48.692;9.020;2022-07-25T14:09:05;35.30;39.30
4058;DHT22;2044;48.692;9.020;2022-07-25T14:11:32;35.00;37.90
4058;DHT22;2044;48.692;9.020;2022-07-25T14:14:00;34.90;37.80
4058;DHT22;2044;48.692;9.020;2022-07-25T14:16:27;34.60;39.70
4058;DHT22;2044;48.692;9.020;2022-07-25T14:18:54;34.70;42.20
4058;DHT22;2044;48.692;9.020;2022-07-25T14:21:21;34.90;42.60
4058;DHT22;2044;48.692;9.020;2022-07-25T14:23:48;35.00;43.50
4058;DHT22;2044;48.692;9.020;2022-07-25T14:26:15;35.20;42.90
4058;DHT22;2044;48.692;9.020;2022-07-25T14:28:42;35.30;43.20
4058;DHT22;2044;48.692;9.020;2022-07-25T14:31:10;35.20;43.90
4058;DHT22;2044;48.692;9.020;2022-07-25T14:33:37;35.00;43.70
4058;DHT22;2044;48.692;9.020;2022-07-25T14:36:05;35.10;45.10
4058;DHT22;2044;48.692;9.020;2022-07-25T14:38:32;35.00;43.80
4058;DHT22;2044;48.692;9.020;2022-07-25T14:40:58;34.60;46.10
4058;DHT22;2044;48.692;9.020;2022-07-25T14:43:25;34.90;47.80
4058;DHT22;2044;48.692;9.020;2022-07-25T14:45:52;35.20;45.80
4058;DHT22;2044;48.692;9.020;2022-07-25T14:48:20;35.40;46.40
4058;DHT22;2044;48.692;9.020;2022-07-25T14:50:47;36.10;47.20
4058;DHT22;2044;48.692;9.020;2022-07-25T14:53:13;35.70;64.60
4058;DHT22;2044;48.692;9.020;2022-07-25T14:55:40;35.90;46.50
4058;DHT22;2044;48.692;9.020;2022-07-25T14:58:07;35.60;46.70
4058;DHT22;2044;48.692;9.020;2022-07-25T15:00:34;36.10;47.60
4058;DHT22;2044;48.692;9.020;2022-07-25T15:03:05;36.00;45.30
4058;DHT22;2044;48.692;9.020;2022-07-25T15:05:34;35.60;43.90
4058;DHT22;2044;48.692;9.020;2022-07-25T15:08:00;35.30;45.70
4058;DHT22;2044;48.692;9.020;2022-07-25T15:10:27;35.50;46.60
4058;DHT22;2044;48.692;9.020;2022-07-25T15:12:54;36.00;46.30
4058;DHT22;2044;48.692;9.020;2022-07-25T15:15:21;36.50;48.10
4058;DHT22;2044;48.692;9.020;2022-07-25T15:17:47;36.70;50.10
4058;DHT22;2044;48.692;9.020;2022-07-25T15:20:14;37.20;49.10
4058;DHT22;2044;48.692;9.020;2022-07-25T15:22:42;37.20;47.20
4058;DHT22;2044;48.692;9.020;2022-07-25T15:25:10;36.80;46.80
4058;DHT22;2044;48.692;9.020;2022-07-25T15:27:37;36.40;45.60
4058;DHT22;2044;48.692;9.020;2022-07-25T15:30:05;35.80;45.50
4058;DHT22;2044;48.692;9.020;2022-07-25T15:32:31;35.80;48.40
4058;DHT22;2044;48.692;9.020;2022-07-25T15:34:58;35.90;47.50
4058;DHT22;2044;48.692;9.020;2022-07-25T15:37:25;36.00;47.80
4058;DHT22;2044;48.692;9.020;2022-07-25T15:39:54;36.10;47.90
4058;DHT22;2044;48.692;9.020;2022-07-25T15:42:21;35.80;45.80
4058;DHT22;2044;48.692;9.020;2022-07-25T15:44:48;35.00;47.10
4058;DHT22;2044;48.692;9.020;2022-07-25T15:47:15;34.20;51.90
4058;DHT22;2044;48.692;9.020;2022-07-25T15:49:41;33.20;57.40
4058;DHT22;2044;48.692;9.020;2022-07-25T15:52:08;32.60;58.70
4058;DHT22;2044;48.692;9.020;2022-07-25T15:54:35;32.30;60.70
4058;DHT22;2044;48.692;9.020;2022-07-25T15:57:04;32.00;62.50
4058;DHT22;2044;48.692;9.020;2022-07-25T15:59:31;31.90;64.40
4058;DHT22;2044;48.692;9.020;2022-07-25T16:01:58;31.80;66.10
4058;DHT22;2044;48.692;9.020;2022-07-25T16:04:25;31.80;67.30
4058;DHT22;2044;48.692;9.020;2022-07-25T16:06:52;31.80;68.70